HEAZ weather

Almaza Air Force Base
Cairo, Cairo Governorate, Egypt

Public forecast

Using degrees Celsius for public forecast. Weather courtesy of forecast.io.

METAR (pilot weather report)

Closest report is Cairo International Airport, 3.0 nm (5.5 km) NE. Retrieved 2019/02/19 00:00 UTC (1 hour ago):

HECA 190000Z VRB02KT 4000 HZ NSC 12/07 Q1023 NOSIG

TAF (pilot weather forecast)

Forecast is more than 12 hours old.

Closest forecast is Cairo International Airport, 3.0 nm (5.5 km) NE. Retrieved 2019/02/18 00:40 UTC (1 day ago):

TAF HECA 182300Z 1900/2006 29008KT 6000 NSC TEMPO 1900/1906 4000HZ BECMG 1908/1910 35010KT 9999 SCT025